Time;durP1;ratioP1;P1;durP2;ratioP2;P2;SDS_P1;SDS_P2;PMS_P1;PMS_P2;Temp;Humidity;BMP_temperature;BMP_pressure;BME280_temperature;BME280_humidity;BME280_pressure;Samples;Min_cycle;Max_cycle;Signal;HPM_P1;HPM_P2
2021/05/29 00:01:05;;;;;;;6.70;4.73;;;11.50;99.90;;;;;;5010600;28;20956;-44
2021/05/29 00:03:32;;;;;;;22.53;4.47;;;11.50;99.90;;;;;;5002843;28;20441;-47
2021/05/29 00:05:59;;;;;;;7.23;3.80;;;11.50;99.90;;;;;;5002869;28;20536;-49
2021/05/29 00:08:25;;;;;;;4.77;4.30;;;11.50;99.90;;;;;;5002684;28;20434;-50
2021/05/29 00:10:56;;;;;;;6.13;4.07;;;11.50;99.90;;;;;;5003686;28;20490;-52
2021/05/29 00:13:25;;;;;;;5.43;3.80;;;11.50;99.90;;;;;;5000604;28;20525;-49
2021/05/29 00:15:51;;;;;;;6.83;3.27;;;11.50;99.90;;;;;;5002823;28;20450;-47
2021/05/29 00:18:17;;;;;;;4.23;3.83;;;11.50;99.90;;;;;;5003267;28;20438;-49
2021/05/29 00:20:44;;;;;;;6.93;4.37;;;11.50;99.90;;;;;;5003533;28;20457;-55
2021/05/29 00:23:11;;;;;;;5.93;3.83;;;11.50;99.90;;;;;;5003570;28;20442;-49
2021/05/29 00:25:39;;;;;;;6.40;3.87;;;11.40;99.90;;;;;;5004454;28;20465;-49
2021/05/29 00:28:06;;;;;;;4.57;3.30;;;11.50;99.90;;;;;;5003315;28;20434;-51
2021/05/29 00:30:33;;;;;;;5.37;3.10;;;11.40;99.90;;;;;;5004093;28;20454;-50
2021/05/29 00:32:59;;;;;;;6.20;3.70;;;11.40;99.90;;;;;;5003265;28;20467;-52
2021/05/29 00:35:25;;;;;;;5.40;3.97;;;11.30;99.90;;;;;;5002501;28;20449;-51
2021/05/29 00:37:52;;;;;;;8.10;4.00;;;11.30;99.90;;;;;;5002919;28;20671;-48
2021/05/29 00:40:18;;;;;;;5.30;3.63;;;11.30;99.90;;;;;;5002589;28;20438;-51
2021/05/29 00:42:45;;;;;;;6.83;4.77;;;11.20;99.90;;;;;;5002030;28;20441;-50
2021/05/29 00:45:13;;;;;;;5.33;3.97;;;11.20;99.90;;;;;;5002948;28;20434;-51
2021/05/29 00:47:39;;;;;;;8.27;4.20;;;11.20;99.90;;;;;;5002547;28;20481;-46
2021/05/29 00:50:09;;;;;;;4.50;3.57;;;11.20;99.90;;;;;;5003094;28;20545;-48
2021/05/29 00:52:35;;;;;;;11.63;4.17;;;11.20;99.90;;;;;;5003256;28;20482;-46
2021/05/29 00:55:04;;;;;;;4.53;3.87;;;11.20;99.90;;;;;;5000565;28;20780;-47
2021/05/29 00:57:30;;;;;;;5.40;3.97;;;11.20;99.90;;;;;;5002558;28;20454;-52
2021/05/29 00:59:56;;;;;;;4.13;3.30;;;11.20;99.90;;;;;;5002098;28;20960;-48
2021/05/29 01:02:24;;;;;;;12.80;4.50;;;11.20;99.90;;;;;;5002265;28;20454;-49
2021/05/29 01:04:50;;;;;;;5.43;3.53;;;11.10;99.90;;;;;;5003825;28;20545;-47
2021/05/29 01:07:17;;;;;;;5.77;4.00;;;11.10;99.90;;;;;;5002838;28;20454;-48
2021/05/29 01:09:45;;;;;;;4.97;3.60;;;11.00;99.90;;;;;;5003155;28;20434;-50
2021/05/29 01:12:14;;;;;;;5.60;3.97;;;11.00;99.90;;;;;;5002433;28;20513;-46
2021/05/29 01:14:47;;;;;;;4.90;3.13;;;11.00;99.90;;;;;;5002830;28;20521;-49
2021/05/29 01:17:14;;;;;;;5.60;3.93;;;10.90;99.90;;;;;;5002753;28;20431;-46
2021/05/29 01:19:41;;;;;;;7.10;3.63;;;10.90;99.90;;;;;;5003313;28;20913;-48
2021/05/29 01:22:09;;;;;;;6.33;5.60;;;10.90;99.90;;;;;;5003051;28;20450;-51
2021/05/29 01:24:37;;;;;;;5.30;4.20;;;10.80;99.90;;;;;;5002822;28;20453;-54
2021/05/29 01:27:04;;;;;;;4.50;3.90;;;10.80;99.90;;;;;;5003031;28;20434;-46
2021/05/29 01:29:30;;;;;;;4.87;4.37;;;10.70;99.90;;;;;;5002466;28;20654;-48
2021/05/29 01:32:01;;;;;;;7.20;4.10;;;10.70;99.90;;;;;;5001760;28;20524;-48
2021/05/29 01:34:30;;;;;;;6.20;4.40;;;10.70;99.90;;;;;;5002878;28;20445;-50
2021/05/29 01:36:58;;;;;;;6.67;3.83;;;10.60;99.90;;;;;;5003072;28;20596;-49
2021/05/29 01:39:25;;;;;;;11.80;4.50;;;10.60;99.90;;;;;;5002607;28;20512;-44
2021/05/29 01:41:52;;;;;;;4.70;3.80;;;10.60;99.90;;;;;;5002627;28;20460;-52
2021/05/29 01:44:19;;;;;;;8.43;4.20;;;10.60;99.90;;;;;;5002750;28;20516;-53
2021/05/29 01:46:45;;;;;;;5.37;4.00;;;10.60;99.90;;;;;;5003868;28;20477;-49
2021/05/29 01:49:11;;;;;;;6.77;5.73;;;10.50;99.90;;;;;;5006904;28;20536;-49
2021/05/29 01:51:37;;;;;;;8.57;5.87;;;10.50;99.90;;;;;;5007429;28;20508;-51
2021/05/29 01:54:04;;;;;;;6.93;5.43;;;10.50;99.90;;;;;;5006898;28;20488;-53
2021/05/29 01:56:31;;;;;;;7.90;4.63;;;10.50;99.90;;;;;;5007265;28;20446;-50
2021/05/29 01:58:57;;;;;;;9.20;5.27;;;10.50;99.90;;;;;;5007051;28;20830;-52
2021/05/29 02:01:23;;;;;;;11.07;5.97;;;10.40;99.90;;;;;;5007056;28;21060;-50
2021/05/29 02:03:49;;;;;;;11.20;6.50;;;10.40;99.90;;;;;;5007490;28;20442;-51
2021/05/29 02:06:16;;;;;;;6.80;5.13;;;10.40;99.90;;;;;;4997130;28;20513;-50
2021/05/29 02:08:42;;;;;;;13.40;6.30;;;10.30;99.90;;;;;;4987444;28;20910;-49
2021/05/29 02:11:08;;;;;;;6.63;4.97;;;10.30;99.90;;;;;;4987564;28;20505;-50
2021/05/29 02:13:38;;;;;;;11.83;5.90;;;10.40;99.90;;;;;;4987236;28;20965;-53
2021/05/29 02:16:06;;;;;;;9.23;6.20;;;10.30;99.90;;;;;;4987500;28;20509;-53
2021/05/29 02:18:33;;;;;;;7.37;4.97;;;10.30;99.90;;;;;;4987860;28;20466;-52
2021/05/29 02:21:02;;;;;;;5.80;5.23;;;10.30;99.90;;;;;;4987738;28;20783;-48
2021/05/29 02:23:30;;;;;;;6.43;5.73;;;10.30;99.90;;;;;;4987603;28;20457;-53
2021/05/29 02:26:01;;;;;;;8.43;5.60;;;10.30;99.90;;;;;;4988021;28;20470;-48
2021/05/29 02:28:29;;;;;;;9.40;6.70;;;10.20;99.90;;;;;;4988227;28;20454;-45
2021/05/29 02:30:57;;;;;;;14.80;7.47;;;10.20;99.90;;;;;;4987499;28;20458;-48
2021/05/29 02:33:24;;;;;;;9.63;7.13;;;10.20;99.90;;;;;;4986467;28;20486;-49
2021/05/29 02:35:51;;;;;;;10.30;6.60;;;10.20;99.90;;;;;;4986892;28;20450;-50
2021/05/29 02:38:17;;;;;;;7.23;6.20;;;10.20;99.90;;;;;;4987102;28;20459;-52
2021/05/29 02:40:44;;;;;;;7.53;6.57;;;10.20;99.90;;;;;;4987152;28;20459;-52
2021/05/29 02:43:10;;;;;;;8.47;5.97;;;10.20;99.90;;;;;;4987046;28;20447;-50
2021/05/29 02:45:38;;;;;;;7.33;5.60;;;10.20;99.90;;;;;;4986569;28;20455;-49
2021/05/29 02:48:07;;;;;;;12.97;6.87;;;10.20;99.90;;;;;;4987017;28;20536;-45
2021/05/29 02:50:33;;;;;;;10.73;6.90;;;10.30;99.90;;;;;;4986845;28;20457;-54
2021/05/29 02:53:00;;;;;;;8.43;6.43;;;10.30;99.90;;;;;;4987241;28;20549;-52
2021/05/29 02:55:26;;;;;;;12.77;8.27;;;10.30;99.90;;;;;;4987599;28;20438;-50
2021/05/29 02:57:54;;;;;;;12.83;7.30;;;10.30;99.90;;;;;;4986926;28;20443;-48
2021/05/29 03:00:22;;;;;;;12.07;7.87;;;10.30;99.90;;;;;;4986182;28;20465;-51
2021/05/29 03:26:07;;;;;;;10.67;5.83;;;10.20;99.90;;;;;;5950915;23;21627;-51
2021/05/29 03:28:33;;;;;;;10.87;7.67;;;10.30;99.90;;;;;;4996580;28;20512;-51
2021/05/29 03:30:59;;;;;;;8.57;5.77;;;10.30;99.90;;;;;;4996697;28;20769;-49
2021/05/29 03:33:25;;;;;;;11.17;5.90;;;10.40;99.90;;;;;;4996478;28;20485;-51
2021/05/29 03:35:54;;;;;;;10.27;6.43;;;10.40;99.90;;;;;;4996584;28;20452;-48
2021/05/29 03:38:20;;;;;;;9.17;5.97;;;10.30;99.90;;;;;;4996490;28;20779;-54
2021/05/29 03:40:46;;;;;;;11.80;5.90;;;10.40;99.90;;;;;;4996502;28;20449;-48
2021/05/29 03:43:13;;;;;;;12.93;6.53;;;10.40;99.90;;;;;;4996515;28;20516;-49
2021/05/29 03:45:39;;;;;;;7.77;5.60;;;10.40;99.90;;;;;;4996323;28;20449;-49
2021/05/29 03:48:06;;;;;;;9.33;5.37;;;10.30;99.90;;;;;;4996307;28;20469;-49
2021/05/29 03:50:33;;;;;;;17.00;8.50;;;10.20;99.90;;;;;;4996293;28;20508;-49
2021/05/29 03:53:05;;;;;;;14.20;6.70;;;10.30;99.90;;;;;;4996187;28;20537;-48
2021/05/29 03:55:32;;;;;;;15.10;7.00;;;10.30;99.90;;;;;;4995902;28;20897;-53
2021/05/29 03:57:59;;;;;;;12.37;6.90;;;10.30;99.90;;;;;;4996146;28;20449;-46
2021/05/29 04:00:27;;;;;;;16.37;7.17;;;10.30;99.90;;;;;;4996033;28;20477;-51
2021/05/29 04:02:53;;;;;;;13.37;7.60;;;10.30;99.90;;;;;;4995852;28;20481;-49
2021/05/29 04:05:21;;;;;;;11.60;7.90;;;10.40;99.90;;;;;;4995980;28;20454;-49
2021/05/29 04:07:47;;;;;;;20.50;7.50;;;10.40;99.90;;;;;;4995929;28;20469;-47
2021/05/29 04:10:15;;;;;;;13.40;7.20;;;10.40;99.90;;;;;;4995283;28;20446;-50
2021/05/29 04:12:42;;;;;;;13.80;7.03;;;10.30;99.90;;;;;;4995684;28;20913;-54
2021/05/29 04:15:10;;;;;;;12.00;7.27;;;10.40;99.90;;;;;;4995865;28;20454;-45
2021/05/29 04:17:38;;;;;;;14.97;7.90;;;10.40;99.90;;;;;;4995721;28;20473;-49
2021/05/29 04:20:05;;;;;;;9.27;6.77;;;10.50;99.90;;;;;;4988567;28;20504;-52
2021/05/29 04:22:31;;;;;;;14.17;7.90;;;10.50;99.90;;;;;;4995630;28;20438;-46
2021/05/29 04:24:57;;;;;;;11.93;7.33;;;10.60;99.90;;;;;;4995696;28;20512;-46
2021/05/29 04:27:24;;;;;;;10.63;7.00;;;10.60;99.90;;;;;;4995202;28;20474;-49
2021/05/29 04:29:51;;;;;;;12.70;8.83;;;10.70;99.90;;;;;;4995311;28;20457;-53
2021/05/29 04:32:17;;;;;;;12.87;7.77;;;10.70;99.90;;;;;;4995110;28;20478;-46
2021/05/29 04:34:44;;;;;;;12.30;7.47;;;10.60;99.90;;;;;;4995453;28;20490;-45
2021/05/29 04:37:13;;;;;;;10.40;6.93;;;10.60;99.90;;;;;;4995114;28;20513;-45
2021/05/29 04:39:39;;;;;;;12.27;7.40;;;10.70;99.90;;;;;;4995399;28;20780;-48
2021/05/29 04:42:06;;;;;;;16.50;11.40;;;10.80;99.90;;;;;;4995431;28;20516;-49
2021/05/29 04:44:32;;;;;;;14.77;9.20;;;10.90;99.90;;;;;;4995371;28;20462;-54
2021/05/29 04:47:00;;;;;;;22.57;11.87;;;10.90;99.90;;;;;;4996009;28;20470;-45
2021/05/29 04:49:28;;;;;;;28.57;14.77;;;10.90;99.90;;;;;;4995159;28;20766;-48
2021/05/29 04:51:57;;;;;;;24.20;14.40;;;10.80;99.90;;;;;;4995141;28;20465;-48
2021/05/29 04:54:23;;;;;;;23.43;16.27;;;10.60;99.90;;;;;;4994677;28;20493;-45
2021/05/29 04:56:49;;;;;;;32.00;18.17;;;10.60;99.90;;;;;;4994757;28;20446;-51
2021/05/29 04:59:15;;;;;;;23.50;14.40;;;10.60;99.90;;;;;;4995034;28;20457;-52
2021/05/29 05:01:41;;;;;;;23.27;12.87;;;10.60;99.90;;;;;;4995000;28;20456;-52
2021/05/29 05:04:07;;;;;;;18.03;9.80;;;10.60;99.90;;;;;;4994920;28;20442;-47
2021/05/29 10:05:47;;;;;;;9.03;4.47;;;22.30;91.30;;;;;;6062497;23;20542;-49
2021/05/29 10:08:15;;;;;;;10.27;5.13;;;22.80;91.00;;;;;;4994607;28;20524;-50
2021/05/29 10:10:42;;;;;;;12.03;6.13;;;22.70;87.40;;;;;;4998620;28;20477;-47
2021/05/29 10:13:08;;;;;;;11.53;6.00;;;22.30;89.40;;;;;;4996746;28;20806;-47
2021/05/29 10:15:35;;;;;;;6.03;5.40;;;22.80;90.40;;;;;;4998779;28;20442;-51
2021/05/29 10:18:06;;;;;;;7.90;4.80;;;23.30;89.60;;;;;;4998410;28;20484;-46
2021/05/29 10:20:32;;;;;;;9.67;5.23;;;24.20;88.40;;;;;;4999112;28;20430;-49
2021/05/29 10:23:00;;;;;;;6.97;4.90;;;24.50;82.60;;;;;;4997931;28;20525;-50
2021/05/29 10:25:29;;;;;;;8.63;5.00;;;24.10;79.60;;;;;;4996044;28;20556;-50
2021/05/29 10:27:56;;;;;;;14.10;6.40;;;23.10;82.60;;;;;;4995903;28;20457;-44
2021/05/29 10:30:25;;;;;;;8.87;6.20;;;22.00;84.30;;;;;;4999021;28;20553;-49
2021/05/29 10:33:11;;;;;;;6.90;5.00;;;21.20;90.00;;;;;;4999216;28;20967;-49
2021/05/29 10:35:38;;;;;;;5.77;5.00;;;20.90;91.90;;;;;;4998335;28;20482;-45
2021/05/29 10:38:06;;;;;;;7.20;5.13;;;21.10;91.20;;;;;;4998646;28;20768;-48
2021/05/29 10:40:35;;;;;;;8.80;6.20;;;21.30;91.00;;;;;;4998859;28;20449;-45
2021/05/29 10:43:14;;;;;;;12.33;6.20;;;20.90;91.80;;;;;;4996577;28;20442;-47
2021/05/29 10:46:05;;;;;;;8.50;5.40;;;20.10;94.20;;;;;;4999019;28;20500;-52
2021/05/29 10:48:46;;;;;;;9.43;6.37;;;19.60;94.90;;;;;;4997885;28;20438;-52
2021/05/29 10:51:13;;;;;;;7.97;5.77;;;19.40;96.30;;;;;;4999099;28;20502;-46
2021/05/29 10:53:45;;;;;;;12.60;5.47;;;19.60;95.80;;;;;;4996568;28;20551;-53
2021/05/29 10:56:31;;;;;;;8.97;6.10;;;19.90;96.60;;;;;;4999001;28;20438;-50
2021/05/29 10:59:18;;;;;;;7.97;6.00;;;19.90;96.30;;;;;;4998817;28;20474;-49
2021/05/29 11:02:05;;;;;;;10.43;6.50;;;19.70;96.80;;;;;;4993221;28;20457;-48
2021/05/29 11:04:32;;;;;;;10.03;6.23;;;19.70;96.80;;;;;;4997555;28;20441;-50
2021/05/29 11:07:00;;;;;;;9.00;6.57;;;19.60;96.20;;;;;;4998121;28;20769;-46
2021/05/29 11:09:47;;;;;;;11.83;6.30;;;19.70;96.70;;;;;;4998615;28;20500;-47
2021/05/29 11:12:13;;;;;;;8.07;6.10;;;19.80;97.10;;;;;;4997926;28;20477;-53
2021/05/29 11:14:56;;;;;;;8.60;6.37;;;19.70;96.70;;;;;;4998064;28;20481;-51
2021/05/29 11:17:24;;;;;;;9.23;5.60;;;19.20;98.30;;;;;;4998326;28;20459;-47
2021/05/29 11:20:03;;;;;;;13.00;7.40;;;18.80;99.60;;;;;;4997960;28;20773;-53
2021/05/29 11:22:38;;;;;;;8.97;6.03;;;18.50;99.90;;;;;;4997067;28;20438;-49
2021/05/29 11:25:06;;;;;;;9.40;6.30;;;18.70;99.90;;;;;;4996875;28;20445;-51
2021/05/29 11:27:35;;;;;;;7.30;5.70;;;19.10;99.90;;;;;;4998156;28;20446;-47
2021/05/29 11:30:04;;;;;;;8.80;5.83;;;19.30;99.90;;;;;;4995726;28;20434;-51
2021/05/29 11:32:49;;;;;;;9.53;6.57;;;19.10;99.90;;;;;;4997953;28;20450;-47
2021/05/29 11:35:30;;;;;;;8.53;5.87;;;19.20;99.90;;;;;;4978872;28;20463;-50
2021/05/29 11:38:03;;;;;;;7.07;6.00;;;19.10;99.90;;;;;;4978855;28;20530;-51
2021/05/29 11:40:57;;;;;;;9.80;5.43;;;19.20;99.90;;;;;;4979457;28;20462;-48
2021/05/29 11:43:38;;;;;;;10.40;6.03;;;19.30;99.90;;;;;;4998331;28;20430;-53
2021/05/29 11:46:07;;;;;;;7.07;5.67;;;19.40;99.90;;;;;;4998567;28;20742;-48
2021/05/29 11:48:35;;;;;;;8.67;6.00;;;19.40;99.90;;;;;;4998248;28;20453;-48
2021/05/29 11:51:11;;;;;;;9.90;7.53;;;19.00;99.90;;;;;;4998174;28;20469;-48
2021/05/29 11:53:39;;;;;;;7.60;5.50;;;18.70;99.90;;;;;;4997853;28;20503;-49
2021/05/29 11:56:06;;;;;;;7.33;6.27;;;18.60;99.90;;;;;;4998072;28;20465;-50
2021/05/29 11:58:47;;;;;;;9.57;6.40;;;18.50;99.90;;;;;;4997615;28;20450;-45
2021/05/29 12:01:14;;;;;;;12.30;6.80;;;18.20;99.90;;;;;;4998548;28;20430;-48
2021/05/29 12:03:48;;;;;;;8.87;6.33;;;18.00;99.90;;;;;;4998032;28;20446;-52
2021/05/29 12:06:48;;;;;;;7.80;5.53;;;17.80;99.90;;;;;;4998468;28;20485;-50
2021/05/29 12:09:15;;;;;;;6.83;5.67;;;18.00;99.90;;;;;;4998622;28;20422;-50
2021/05/29 12:11:44;;;;;;;8.20;5.90;;;18.10;99.90;;;;;;4995874;28;20528;-50
2021/05/29 12:14:13;;;;;;;8.77;6.27;;;18.30;99.90;;;;;;4994466;28;20501;-46
2021/05/29 12:16:42;;;;;;;12.03;6.00;;;18.40;99.90;;;;;;4996019;28;20462;-46
2021/05/29 12:19:25;;;;;;;10.10;6.00;;;18.40;99.90;;;;;;4997557;28;20774;-48
2021/05/29 12:21:54;;;;;;;10.53;7.37;;;18.50;99.90;;;;;;4996601;28;20469;-45
2021/05/29 12:24:20;;;;;;;10.70;6.07;;;18.40;99.90;;;;;;4997611;28;20442;-51
2021/05/29 12:26:50;;;;;;;10.83;6.80;;;18.40;99.90;;;;;;4996429;28;20451;-45
2021/05/29 12:29:19;;;;;;;9.80;6.67;;;18.50;99.90;;;;;;4996660;28;20450;-47
2021/05/29 12:31:48;;;;;;;7.60;5.60;;;18.50;99.90;;;;;;4996814;28;20442;-50
2021/05/29 12:34:14;;;;;;;8.03;5.67;;;18.30;99.90;;;;;;4997655;28;20489;-45
2021/05/29 12:37:01;;;;;;;10.13;6.40;;;18.40;99.90;;;;;;4997442;28;20785;-45
2021/05/29 12:39:50;;;;;;;13.43;6.77;;;18.50;99.90;;;;;;4997988;28;20434;-50
2021/05/29 12:42:22;;;;;;;8.10;5.87;;;18.50;99.90;;;;;;4997285;28;20488;-52
2021/05/29 12:44:51;;;;;;;9.03;6.83;;;18.20;99.90;;;;;;4997101;28;21068;-47
2021/05/29 12:47:18;;;;;;;7.73;6.00;;;18.10;99.90;;;;;;4997279;28;20803;-53
2021/05/29 12:49:45;;;;;;;7.87;5.67;;;18.20;99.90;;;;;;4998452;28;20496;-46
2021/05/29 12:52:25;;;;;;;11.80;5.90;;;18.30;99.90;;;;;;4996320;28;20450;-51
2021/05/29 12:54:52;;;;;;;8.70;6.50;;;18.50;99.90;;;;;;4996066;28;20959;-48
2021/05/29 12:57:18;;;;;;;7.87;5.43;;;18.40;99.90;;;;;;4996859;28;20457;-48
2021/05/29 12:59:45;;;;;;;11.53;6.23;;;18.50;99.90;;;;;;4997292;28;20454;-48
2021/05/29 13:02:36;;;;;;;7.50;5.53;;;18.60;99.90;;;;;;4995767;28;20454;-49
2021/05/29 13:07:52;;;;;;;8.03;6.33;;;18.90;99.90;;;;;;4987977;28;20480;-51
2021/05/29 13:10:23;;;;;;;8.10;5.20;;;18.60;99.90;;;;;;4997604;28;20745;-49
2021/05/29 13:13:00;;;;;;;5.80;5.20;;;18.50;99.90;;;;;;4997320;28;20465;-52
2021/05/29 13:15:29;;;;;;;10.50;5.90;;;18.20;99.90;;;;;;4997162;28;20442;-53
2021/05/29 13:18:12;;;;;;;8.50;5.87;;;18.10;99.90;;;;;;4997583;28;20461;-51
2021/05/29 13:20:40;;;;;;;6.97;5.20;;;18.20;99.90;;;;;;4985596;28;20459;-52
2021/05/29 13:23:08;;;;;;;13.03;5.30;;;18.20;99.90;;;;;;4990965;28;20448;-47
2021/05/29 13:25:40;;;;;;;8.10;4.87;;;18.30;99.90;;;;;;4991981;28;20447;-47
2021/05/29 13:28:13;;;;;;;6.10;5.30;;;18.30;99.90;;;;;;4975524;28;20443;-50
2021/05/29 13:30:41;;;;;;;7.60;5.00;;;18.30;99.90;;;;;;4975602;28;20443;-47
2021/05/29 13:33:08;;;;;;;10.83;6.20;;;18.20;99.90;;;;;;4975492;28;20517;-47
2021/05/29 13:35:36;;;;;;;9.00;6.07;;;18.10;99.90;;;;;;4975556;28;20455;-51
2021/05/29 13:38:03;;;;;;;7.33;5.67;;;18.00;99.90;;;;;;4980378;28;20453;-51
2021/05/29 13:40:29;;;;;;;7.43;5.47;;;18.10;99.90;;;;;;4994686;28;20434;-49
2021/05/29 13:42:56;;;;;;;9.40;5.80;;;18.20;99.90;;;;;;4995583;28;20537;-47
2021/05/29 13:45:25;;;;;;;10.23;6.73;;;18.20;99.90;;;;;;4998602;28;20893;-48
2021/05/29 13:47:52;;;;;;;6.83;5.00;;;18.10;99.90;;;;;;4998852;28;20452;-51
2021/05/29 13:50:20;;;;;;;6.10;4.87;;;18.30;99.90;;;;;;4998840;28;20457;-48
2021/05/29 13:52:46;;;;;;;19.20;6.00;;;18.20;99.90;;;;;;4998430;28;20545;-47
2021/05/29 13:55:13;;;;;;;5.93;5.20;;;18.20;99.90;;;;;;4998746;28;20454;-49
2021/05/29 13:57:40;;;;;;;7.47;5.67;;;18.20;99.90;;;;;;4998692;28;20464;-45
2021/05/29 14:00:09;;;;;;;6.10;4.80;;;18.20;99.90;;;;;;4998616;28;20454;-47
2021/05/29 14:02:36;;;;;;;7.23;5.50;;;18.10;99.90;;;;;;4998608;28;20470;-44
2021/05/29 14:05:04;;;;;;;5.50;4.60;;;18.30;99.90;;;;;;4998295;28;20788;-51
2021/05/29 14:07:30;;;;;;;7.63;5.30;;;18.40;99.90;;;;;;4998101;28;20481;-47
2021/05/29 14:09:56;;;;;;;6.70;4.97;;;18.40;99.90;;;;;;4998824;28;20473;-48
2021/05/29 14:12:23;;;;;;;8.53;6.60;;;18.40;99.90;;;;;;4998531;28;20434;-50
2021/05/29 14:14:49;;;;;;;7.07;5.20;;;18.20;99.90;;;;;;4991211;28;20479;-47
2021/05/29 14:17:15;;;;;;;5.97;5.33;;;18.20;99.90;;;;;;4978915;28;20455;-49
2021/05/29 14:19:41;;;;;;;6.43;5.03;;;18.20;99.90;;;;;;4978848;28;20467;-44
2021/05/29 14:22:08;;;;;;;7.10;5.60;;;18.30;99.90;;;;;;4978860;28;20458;-53
2021/05/29 14:24:34;;;;;;;13.70;5.00;;;18.30;99.90;;;;;;4988882;28;20453;-50
2021/05/29 14:27:01;;;;;;;9.20;5.73;;;18.40;99.90;;;;;;4995853;28;20442;-45
2021/05/29 14:29:28;;;;;;;7.07;4.90;;;18.40;99.90;;;;;;4994258;28;20446;-51
2021/05/29 14:31:54;;;;;;;7.10;5.10;;;18.40;99.90;;;;;;4996376;28;20461;-50
2021/05/29 14:34:20;;;;;;;8.23;5.13;;;18.40;99.90;;;;;;4996470;28;20465;-48
2021/05/29 14:36:46;;;;;;;8.20;5.07;;;18.50;99.90;;;;;;4996914;28;20488;-42
2021/05/29 14:39:14;;;;;;;6.23;4.50;;;18.50;99.90;;;;;;4996102;28;20452;-47
2021/05/29 14:41:40;;;;;;;6.10;5.17;;;18.50;99.90;;;;;;4997177;28;20449;-53
2021/05/29 14:44:07;;;;;;;6.93;5.53;;;18.50;99.90;;;;;;4992879;28;20493;-50
2021/05/29 14:46:33;;;;;;;6.30;4.57;;;18.40;99.90;;;;;;4996483;28;20521;-53
2021/05/29 14:49:00;;;;;;;7.97;5.20;;;18.40;99.90;;;;;;4997008;28;20474;-48
2021/05/29 14:51:28;;;;;;;11.77;6.10;;;18.50;99.90;;;;;;4997172;28;20468;-51
2021/05/29 14:53:55;;;;;;;6.00;5.17;;;18.70;99.90;;;;;;4996623;28;20477;-50
2021/05/29 14:56:25;;;;;;;5.37;4.70;;;18.80;99.90;;;;;;4996022;28;20453;-48
2021/05/29 14:58:52;;;;;;;7.63;4.67;;;18.90;99.90;;;;;;4996635;28;20538;-50
2021/05/29 15:01:18;;;;;;;5.73;5.23;;;18.90;99.90;;;;;;4996676;28;21011;-53
2021/05/29 15:03:48;;;;;;;6.30;4.73;;;18.90;99.90;;;;;;4996815;28;20469;-50
2021/05/29 15:06:14;;;;;;;5.40;4.50;;;18.80;99.90;;;;;;4996896;28;20568;-44
2021/05/29 15:08:41;;;;;;;6.73;5.33;;;18.70;99.90;;;;;;4996824;28;20891;-51
2021/05/29 15:11:07;;;;;;;11.87;5.90;;;18.50;99.90;;;;;;4997052;28;20461;-45
2021/05/29 15:13:35;;;;;;;7.70;5.50;;;18.50;99.90;;;;;;4996944;28;20513;-49
2021/05/29 15:16:01;;;;;;;8.70;5.00;;;18.40;99.90;;;;;;4996967;28;20450;-46
2021/05/29 15:18:27;;;;;;;6.90;5.90;;;18.40;99.90;;;;;;4996908;28;20442;-46
2021/05/29 15:23:40;;;;;;;6.47;5.17;;;18.30;99.90;;;;;;4993716;28;20498;-53
2021/05/29 15:26:10;;;;;;;5.97;4.70;;;18.30;99.90;;;;;;4995930;28;20482;-52
2021/05/29 15:28:38;;;;;;;6.10;5.50;;;18.30;99.90;;;;;;4998061;28;20441;-53
2021/05/29 15:31:06;;;;;;;4.90;4.17;;;18.30;99.90;;;;;;4993975;28;20469;-52
2021/05/29 15:33:32;;;;;;;5.40;4.63;;;18.20;99.90;;;;;;4997770;28;20475;-47
2021/05/29 15:35:58;;;;;;;6.10;5.50;;;18.20;99.90;;;;;;4998016;28;20454;-50
2021/05/29 15:38:24;;;;;;;7.43;5.47;;;18.20;99.90;;;;;;4998367;28;20442;-50
2021/05/29 15:40:51;;;;;;;7.83;4.90;;;18.30;99.90;;;;;;4998317;28;20508;-46
2021/05/29 15:43:17;;;;;;;5.60;5.00;;;18.30;99.90;;;;;;4998407;28;20461;-51
2021/05/29 15:45:44;;;;;;;5.50;4.90;;;18.70;99.90;;;;;;4998120;28;20769;-48
2021/05/29 15:48:11;;;;;;;5.30;4.10;;;18.80;99.90;;;;;;4992971;28;20466;-51
2021/05/29 15:51:01;;;;;;;12.27;4.60;;;18.90;99.90;;;;;;4997785;28;20446;-48
2021/05/29 15:53:26;;;;;;;8.17;5.13;;;19.00;99.90;;;;;;4996864;28;20474;-48
2021/05/29 15:55:52;;;;;;;6.00;4.50;;;19.00;99.90;;;;;;4998347;28;20824;-46
2021/05/29 15:58:19;;;;;;;7.90;4.23;;;18.80;99.90;;;;;;4997831;28;20462;-51
2021/05/29 16:00:46;;;;;;;5.87;5.27;;;18.70;99.90;;;;;;4998103;28;20465;-45
2021/05/29 16:03:12;;;;;;;7.57;5.03;;;18.60;99.90;;;;;;4997652;28;20481;-51
2021/05/29 16:05:38;;;;;;;5.80;5.13;;;18.60;99.90;;;;;;4997127;28;20446;-48
2021/05/29 16:08:05;;;;;;;7.97;4.80;;;18.60;99.90;;;;;;4985857;28;20520;-52
2021/05/29 16:10:32;;;;;;;5.40;4.30;;;18.60;99.90;;;;;;4997797;28;20469;-51
2021/05/29 16:12:58;;;;;;;9.70;5.70;;;18.50;99.90;;;;;;4986952;28;20505;-53
2021/05/29 16:15:25;;;;;;;5.73;5.13;;;18.30;99.90;;;;;;4978283;28;20892;-51
2021/05/29 16:17:53;;;;;;;7.93;4.80;;;18.30;99.90;;;;;;4978103;28;20462;-52
2021/05/29 16:20:20;;;;;;;7.80;5.73;;;18.20;99.90;;;;;;4996665;28;20916;-51
2021/05/29 16:22:47;;;;;;;6.60;5.00;;;18.10;99.90;;;;;;4998165;28;20454;-46
2021/05/29 16:25:13;;;;;;;8.50;6.70;;;18.00;99.90;;;;;;4997702;28;20438;-53
2021/05/29 16:27:39;;;;;;;8.80;5.60;;;18.00;99.90;;;;;;4997228;28;20466;-46
2021/05/29 16:30:07;;;;;;;5.60;5.07;;;18.10;99.90;;;;;;4997853;28;20446;-53
2021/05/29 16:32:34;;;;;;;5.80;4.80;;;18.10;99.90;;;;;;4996833;28;20458;-49
2021/05/29 16:35:01;;;;;;;5.90;4.60;;;18.10;99.90;;;;;;4997552;28;20486;-52
2021/05/29 16:37:27;;;;;;;11.40;5.70;;;18.10;99.90;;;;;;4997708;28;20959;-47
2021/05/29 16:39:54;;;;;;;6.13;5.17;;;18.10;99.90;;;;;;4997631;28;20890;-50
2021/05/29 16:42:21;;;;;;;7.93;5.70;;;18.00;99.90;;;;;;4997900;28;20477;-48
2021/05/29 16:44:47;;;;;;;6.50;5.53;;;18.00;99.90;;;;;;4997170;28;20469;-50
2021/05/29 16:47:14;;;;;;;11.97;5.37;;;18.00;99.90;;;;;;4998050;28;20450;-46
2021/05/29 16:49:40;;;;;;;5.77;4.80;;;18.00;99.90;;;;;;4998061;28;20449;-50
2021/05/29 16:52:07;;;;;;;7.50;5.33;;;18.00;99.90;;;;;;4997920;28;20804;-49
2021/05/29 16:54:35;;;;;;;7.47;5.40;;;18.20;99.90;;;;;;4997892;28;20477;-50
2021/05/29 16:57:02;;;;;;;10.93;6.00;;;18.20;99.90;;;;;;4997718;28;20489;-47
2021/05/29 16:59:28;;;;;;;5.93;4.17;;;18.30;99.90;;;;;;4997909;28;20453;-50
2021/05/29 17:01:54;;;;;;;5.77;4.37;;;18.30;99.90;;;;;;4984087;28;20459;-52
2021/05/29 17:04:20;;;;;;;6.87;5.53;;;18.40;99.90;;;;;;4977722;28;20446;-49
2021/05/29 17:06:46;;;;;;;5.43;4.63;;;18.30;99.90;;;;;;4977696;28;20478;-52
2021/05/29 17:09:13;;;;;;;9.70;5.27;;;18.40;99.90;;;;;;4977640;28;20470;-48
2021/05/29 17:11:41;;;;;;;8.47;4.60;;;18.40;99.90;;;;;;4977892;28;20463;-50
2021/05/29 17:14:08;;;;;;;4.70;4.10;;;18.50;99.90;;;;;;4977383;28;20489;-46
2021/05/29 17:16:35;;;;;;;6.80;3.43;;;18.50;99.90;;;;;;4977394;28;20467;-47
2021/05/29 17:19:01;;;;;;;3.90;3.10;;;18.40;99.90;;;;;;4977040;28;20469;-50
2021/05/29 17:21:28;;;;;;;4.03;3.50;;;18.30;99.40;;;;;;4977306;28;20778;-50
2021/05/29 17:23:54;;;;;;;4.30;3.60;;;18.30;98.50;;;;;;4977053;28;20458;-50
2021/05/29 17:26:21;;;;;;;5.57;3.90;;;18.30;98.10;;;;;;4977409;28;20447;-50
2021/05/29 17:28:47;;;;;;;9.03;4.30;;;18.20;97.70;;;;;;4977370;28;20510;-48
2021/05/29 17:31:14;;;;;;;5.77;4.00;;;18.10;97.00;;;;;;4977081;28;20470;-50
2021/05/29 17:33:40;;;;;;;7.83;3.43;;;18.10;97.10;;;;;;4977393;28;20512;-46
2021/05/29 17:36:06;;;;;;;8.73;5.70;;;18.10;97.40;;;;;;4977185;28;20462;-53
2021/05/29 17:38:33;;;;;;;6.90;5.63;;;18.00;97.10;;;;;;4977153;28;20510;-48
2021/05/29 17:40:59;;;;;;;8.73;3.77;;;18.00;96.60;;;;;;4981063;28;20548;-49
2021/05/29 17:43:42;;;;;;;4.43;4.00;;;18.00;96.10;;;;;;5010820;28;20473;-52
2021/05/29 17:46:12;;;;;;;7.17;3.70;;;17.90;96.50;;;;;;4997809;28;20430;-51
2021/05/29 17:48:38;;;;;;;5.20;3.70;;;17.90;96.70;;;;;;4997737;28;20501;-52
2021/05/29 17:51:19;;;;;;;3.23;2.93;;;17.90;95.70;;;;;;5016260;28;20469;-51
2021/05/29 17:53:52;;;;;;;4.57;3.57;;;17.80;94.90;;;;;;5016809;28;20473;-51
2021/05/29 17:56:21;;;;;;;5.50;3.60;;;17.80;95.20;;;;;;5016233;28;20442;-52
2021/05/29 18:01:29;;;;;;;5.87;3.10;;;17.70;94.90;;;;;;5016962;28;20410;-50
2021/05/29 18:04:11;;;;;;;6.10;3.67;;;17.70;95.10;;;;;;5016837;28;20442;-51
2021/05/29 18:06:37;;;;;;;10.47;4.30;;;17.60;95.40;;;;;;5010387;28;20956;-53
2021/05/29 18:09:04;;;;;;;5.50;4.40;;;17.60;95.40;;;;;;5016267;28;20474;-51
2021/05/29 18:11:31;;;;;;;4.40;2.80;;;17.60;95.50;;;;;;5017244;28;20450;-48
2021/05/29 18:13:58;;;;;;;6.33;3.93;;;17.60;95.90;;;;;;5016308;28;20486;-51
2021/05/29 18:16:24;;;;;;;6.43;3.63;;;17.50;95.70;;;;;;5015709;28;20458;-52
2021/05/29 18:19:05;;;;;;;5.50;4.00;;;17.50;96.20;;;;;;5015965;28;20450;-51
2021/05/29 18:21:32;;;;;;;8.33;4.67;;;17.50;96.40;;;;;;5016023;28;20480;-51